Time;durP1;ratioP1;P1;durP2;ratioP2;P2;SDS_P1;SDS_P2;PMS_P1;PMS_P2;Temp;Humidity;BMP_temperature;BMP_pressure;BME280_temperature;BME280_humidity;BME280_pressure;Samples;Min_cycle;Max_cycle;Signal;HPM_P1;HPM_P2
2022/06/08 00:00:25;;;;;;;2.05;0.50;;;;;;;28.84;33.68;96371.47;5038954;28;20028;-32
2022/06/08 00:03:03;;;;;;;1.40;0.40;;;;;;;28.84;33.81;96368.81;5021215;28;20029;-38
2022/06/08 00:05:29;;;;;;;2.20;0.50;;;;;;;28.84;33.72;96376.75;5019917;28;20032;-36
2022/06/08 00:07:54;;;;;;;1.73;0.50;;;;;;;28.83;33.71;96380.31;5040351;28;20124;-32
2022/06/08 00:10:20;;;;;;;2.45;0.45;;;;;;;28.84;33.56;96374.09;5044018;28;20386;-37
2022/06/08 00:12:45;;;;;;;1.27;0.55;;;;;;;28.83;33.55;96370.59;5040144;28;20431;-33
2022/06/08 00:15:11;;;;;;;2.42;0.50;;;;;;;28.83;33.51;96369.75;5041272;28;20032;-32
2022/06/08 00:17:36;;;;;;;2.20;0.30;;;;;;;28.82;33.71;96365.44;5034160;28;20024;-35
2022/06/08 00:20:04;;;;;;;2.13;0.43;;;;;;;28.83;33.46;96367.13;5020950;28;20482;-37
2022/06/08 00:22:29;;;;;;;1.10;0.40;;;;;;;28.82;33.75;96365.44;5037042;28;23644;-40
2022/06/08 00:24:54;;;;;;;0.70;0.40;;;;;;;28.82;33.46;96363.66;5041439;28;20021;-32
2022/06/08 00:27:20;;;;;;;1.58;0.30;;;;;;;28.83;33.69;96359.22;5039211;28;20024;-31
2022/06/08 00:29:45;;;;;;;0.40;0.30;;;;;;;28.82;33.66;96354.91;5038389;28;20871;-37
2022/06/08 00:32:11;;;;;;;0.60;0.40;;;;;;;28.83;33.70;96357.44;5041952;28;20031;-31
2022/06/08 00:34:36;;;;;;;0.45;0.30;;;;;;;28.83;33.63;96353.94;5040352;28;20255;-37
2022/06/08 00:37:01;;;;;;;0.45;0.40;;;;;;;28.83;33.51;96348.66;5038550;28;20028;-33
2022/06/08 00:39:27;;;;;;;1.27;0.40;;;;;;;28.83;33.47;96356.56;5040912;28;20629;-32
2022/06/08 00:41:53;;;;;;;0.68;0.40;;;;;;;28.83;33.71;96332.84;5040858;28;20029;-34
2022/06/08 00:44:20;;;;;;;0.30;0.20;;;;;;;28.82;33.50;96346.97;5023788;28;21011;-32
2022/06/08 00:46:47;;;;;;;1.75;0.50;;;;;;;28.82;33.41;96344.34;5040257;28;20089;-37
2022/06/08 00:49:17;;;;;;;1.55;0.40;;;;;;;28.82;33.72;96341.72;5019884;28;20090;-33
2022/06/08 00:51:42;;;;;;;0.63;0.40;;;;;;;28.83;33.65;96346.03;5022644;28;20106;-32
2022/06/08 00:54:11;;;;;;;1.23;0.50;;;;;;;28.81;33.64;96342.66;5039940;28;20036;-32
2022/06/08 00:56:41;;;;;;;2.15;0.40;;;;;;;28.82;33.71;96346.97;5029151;28;20028;-32
2022/06/08 00:59:07;;;;;;;0.82;0.40;;;;;;;28.82;33.52;96336.44;5025474;28;20592;-35
2022/06/08 01:01:32;;;;;;;1.77;0.40;;;;;;;28.82;33.67;96333.78;5042923;28;20029;-38
2022/06/08 01:04:11;;;;;;;1.70;0.40;;;;;;;28.81;33.63;96330.34;5043308;28;20028;-33
2022/06/08 01:06:36;;;;;;;1.00;0.38;;;;;;;28.81;33.42;96332.13;5040135;28;20032;-33
2022/06/08 01:09:02;;;;;;;0.30;0.30;;;;;;;28.80;33.76;96322.53;5038412;28;20859;-32
2022/06/08 01:11:40;;;;;;;0.55;0.20;;;;;;;28.81;33.85;96318.94;5005349;28;20040;-31
2022/06/08 01:14:11;;;;;;;1.15;0.38;;;;;;;28.81;33.57;96318.94;5014884;28;20155;-37
2022/06/08 01:16:39;;;;;;;0.32;0.30;;;;;;;28.82;33.75;96317.97;5037165;28;20029;-38
2022/06/08 01:19:04;;;;;;;0.80;0.30;;;;;;;28.82;33.48;96320.63;5023877;28;20032;-32
2022/06/08 01:21:29;;;;;;;1.58;0.35;;;;;;;28.81;33.70;96318.94;5027217;28;20099;-32
2022/06/08 01:23:57;;;;;;;1.13;0.50;;;;;;;28.82;33.48;96320.63;5039481;28;20036;-30
2022/06/08 01:26:41;;;;;;;0.20;0.20;;;;;;;28.81;33.67;96313.66;5039083;28;20766;-33
2022/06/08 01:29:18;;;;;;;0.30;0.30;;;;;;;28.81;33.74;96313.66;5040807;28;20052;-31
2022/06/08 01:31:53;;;;;;;1.40;0.40;;;;;;;28.80;33.41;96311.97;5020654;28;20032;-33
2022/06/08 01:34:32;;;;;;;1.67;0.30;;;;;;;28.79;33.46;96302.38;5024334;28;20032;-31
2022/06/08 01:37:18;;;;;;;0.75;0.30;;;;;;;28.80;33.71;96311.97;5038420;28;20949;-31
2022/06/08 01:39:52;;;;;;;0.93;0.30;;;;;;;28.80;33.48;96301.44;5037614;28;23403;-35
2022/06/08 01:42:27;;;;;;;1.90;0.47;;;;;;;28.79;33.68;96305.84;5036576;28;20048;-32
2022/06/08 01:45:43;;;;;;;1.30;0.30;;;;;;;28.79;33.60;96308.50;5039439;28;20114;-32
2022/06/08 01:48:07;;;;;;;0.98;0.57;;;;;;;28.79;33.61;96305.00;5020746;28;20040;-35
2022/06/08 01:51:00;;;;;;;0.32;0.20;;;;;;;28.79;33.49;96307.66;5040145;28;20659;-34
2022/06/08 01:53:53;;;;;;;1.05;0.25;;;;;;;28.78;33.57;96303.31;5039272;28;21036;-31
2022/06/08 01:56:32;;;;;;;0.38;0.22;;;;;;;28.78;33.67;96298.06;5040358;28;20020;-30
2022/06/08 01:58:57;;;;;;;0.35;0.30;;;;;;;28.78;33.57;96300.69;5025075;28;20131;-30
2022/06/08 02:01:35;;;;;;;0.38;0.17;;;;;;;28.77;33.77;96297.22;5039017;28;20564;-30
2022/06/08 02:04:12;;;;;;;0.25;0.25;;;;;;;28.77;33.68;96301.66;5041853;28;20155;-30
2022/06/08 02:06:52;;;;;;;0.93;0.30;;;;;;;28.77;33.45;96301.66;5020325;28;21982;-34
2022/06/08 02:09:42;;;;;;;0.63;0.30;;;;;;;28.77;33.76;96291.97;5027127;28;20035;-30
2022/06/08 02:12:09;;;;;;;1.08;0.32;;;;;;;28.77;33.73;96288.47;5008680;28;21621;-32
2022/06/08 02:14:49;;;;;;;0.73;0.30;;;;;;;28.77;33.86;96285.84;5014242;28;20118;-35
2022/06/08 02:17:43;;;;;;;0.28;0.22;;;;;;;28.75;33.63;96283.31;5023268;28;20031;-31
2022/06/08 02:20:13;;;;;;;0.73;0.20;;;;;;;28.77;33.51;96276.13;5028744;28;20025;-32
2022/06/08 02:22:42;;;;;;;0.52;0.40;;;;;;;28.77;33.63;96275.28;5027573;28;20045;-32
2022/06/08 02:25:27;;;;;;;0.32;0.20;;;;;;;28.77;33.75;96277.91;5039742;28;20024;-33
2022/06/08 02:28:03;;;;;;;0.75;0.38;;;;;;;28.76;33.45;96279.72;5030684;28;20044;-32
2022/06/08 02:30:30;;;;;;;0.93;0.32;;;;;;;28.77;33.50;96280.56;5044590;28;20049;-37
2022/06/08 02:35:51;;;;;;;0.57;0.38;;;;;;;28.77;33.55;96272.66;5007609;28;20032;-31
2022/06/08 02:38:20;;;;;;;0.80;0.40;;;;;;;28.76;33.66;96273.63;5019309;28;20237;-39
2022/06/08 02:40:48;;;;;;;0.55;0.35;;;;;;;28.76;33.82;96263.88;5006182;28;20036;-33
2022/06/08 02:43:27;;;;;;;0.82;0.20;;;;;;;28.76;33.68;96263.06;5007586;28;21570;-35
2022/06/08 02:46:26;;;;;;;0.20;0.10;;;;;;;28.76;33.82;96257.78;5042989;28;20024;-32
2022/06/08 02:48:52;;;;;;;0.88;0.38;;;;;;;28.77;33.70;96264.75;5025766;28;20029;-34
2022/06/08 02:51:26;;;;;;;0.35;0.20;;;;;;;28.76;33.73;96273.63;5045004;28;20032;-31
2022/06/08 02:54:05;;;;;;;0.20;0.20;;;;;;;28.75;33.58;96271.94;5017583;28;20073;-37
2022/06/08 02:56:56;;;;;;;0.38;0.32;;;;;;;28.75;33.82;96267.47;5035081;28;20146;-32
2022/06/08 02:59:37;;;;;;;0.30;0.25;;;;;;;28.75;33.63;96264.03;5006370;28;20043;-31
2022/06/08 03:02:43;;;;;;;0.47;0.23;;;;;;;28.75;33.64;96256.13;5046288;28;20028;-35
2022/06/08 03:05:12;;;;;;;1.35;0.45;;;;;;;28.75;33.59;96250.84;5009425;28;20557;-33
2022/06/08 03:07:43;;;;;;;0.50;0.40;;;;;;;28.74;33.82;96250.00;5022463;28;20060;-35
2022/06/08 03:10:09;;;;;;;0.30;0.27;;;;;;;28.74;33.63;96247.34;5041207;28;20149;-31
2022/06/08 03:12:37;;;;;;;0.57;0.30;;;;;;;28.74;33.54;96243.88;5038135;28;20037;-37
2022/06/08 03:15:04;;;;;;;0.20;0.20;;;;;;;28.74;33.67;96235.94;5040431;28;20031;-34
2022/06/08 03:17:32;;;;;;;0.25;0.20;;;;;;;28.74;33.52;96238.59;5042467;28;20028;-32
2022/06/08 03:19:58;;;;;;;0.63;0.25;;;;;;;28.74;33.69;96246.50;5040907;28;20081;-33
2022/06/08 03:22:24;;;;;;;1.38;0.22;;;;;;;28.73;33.73;96243.03;5046873;28;20536;-31
2022/06/08 03:24:49;;;;;;;0.15;0.10;;;;;;;28.73;33.61;96236.91;5048573;28;20059;-33
2022/06/08 03:27:14;;;;;;;0.90;0.20;;;;;;;28.74;33.71;96238.59;5049589;28;20039;-36
2022/06/08 03:29:40;;;;;;;0.10;0.10;;;;;;;28.74;33.78;96236.81;5052452;28;20979;-35
2022/06/08 03:32:06;;;;;;;0.82;0.20;;;;;;;28.74;33.80;96235.94;5049457;28;20044;-31
2022/06/08 03:34:31;;;;;;;0.40;0.28;;;;;;;28.73;33.46;96237.78;5049585;28;20045;-36
2022/06/08 03:36:56;;;;;;;0.32;0.20;;;;;;;28.74;33.65;96233.31;5052469;28;20037;-31
2022/06/08 03:39:22;;;;;;;0.57;0.20;;;;;;;28.74;33.82;96228.03;5052963;28;20399;-33
2022/06/08 03:41:47;;;;;;;0.13;0.13;;;;;;;28.74;33.70;96233.31;5047934;28;20049;-32
2022/06/08 03:44:13;;;;;;;0.20;0.20;;;;;;;28.73;33.49;96226.38;5049120;28;20063;-38
2022/06/08 03:46:44;;;;;;;0.60;0.30;;;;;;;28.74;33.72;96228.03;5045463;28;20027;-35
2022/06/08 03:49:09;;;;;;;0.40;0.30;;;;;;;28.72;33.61;96228.16;5048247;28;20037;-31
2022/06/08 03:51:35;;;;;;;0.20;0.20;;;;;;;28.73;33.64;96223.72;5053899;28;20085;-31
2022/06/08 03:54:04;;;;;;;0.30;0.22;;;;;;;28.73;33.79;96226.38;5013897;28;20035;-31
2022/06/08 03:56:30;;;;;;;0.22;0.22;;;;;;;28.72;33.55;96222.88;5050499;28;20059;-32
2022/06/08 03:58:56;;;;;;;0.65;0.20;;;;;;;28.72;33.65;96224.69;5051327;28;20553;-31
2022/06/08 04:01:21;;;;;;;0.75;0.30;;;;;;;28.72;33.52;96229.97;5028927;28;20035;-31
2022/06/08 04:03:50;;;;;;;0.35;0.20;;;;;;;28.72;33.81;96232.59;5027319;28;20025;-32
2022/06/08 04:06:16;;;;;;;0.40;0.25;;;;;;;28.72;33.81;96232.59;5050030;28;20585;-30
2022/06/08 04:08:41;;;;;;;0.55;0.20;;;;;;;28.72;33.82;96235.25;5052057;28;20040;-31
2022/06/08 04:11:07;;;;;;;0.30;0.20;;;;;;;28.71;33.50;96233.56;5050677;28;20706;-32
2022/06/08 04:13:33;;;;;;;1.13;0.10;;;;;;;28.72;33.56;96229.97;5050994;28;20024;-34
2022/06/08 04:16:01;;;;;;;0.77;0.17;;;;;;;28.71;33.74;96223.84;5051437;28;20032;-34
2022/06/08 04:18:27;;;;;;;0.73;0.32;;;;;;;28.71;33.55;96228.28;5047659;28;20112;-38
2022/06/08 04:20:54;;;;;;;0.70;0.40;;;;;;;28.71;33.80;96229.13;5048813;28;20842;-36
2022/06/08 04:23:20;;;;;;;0.45;0.20;;;;;;;28.71;33.70;96228.28;5051830;28;20021;-35
2022/06/08 04:25:46;;;;;;;0.95;0.25;;;;;;;28.72;33.76;96235.25;5028514;28;20029;-30
2022/06/08 04:28:13;;;;;;;0.20;0.20;;;;;;;28.71;33.56;96226.47;5045526;28;23294;-37
2022/06/08 04:30:38;;;;;;;0.20;0.20;;;;;;;28.71;33.59;96239.66;5050144;28;20021;-34
2022/06/08 04:33:04;;;;;;;0.17;0.17;;;;;;;28.71;33.92;96233.56;5050672;28;20145;-32
2022/06/08 04:35:29;;;;;;;0.20;0.20;;;;;;;28.72;33.77;96232.59;5039560;28;20075;-32
2022/06/08 04:37:55;;;;;;;0.40;0.20;;;;;;;28.71;33.62;96230.94;5040814;28;20028;-31
2022/06/08 04:40:21;;;;;;;0.20;0.20;;;;;;;28.71;33.74;96228.28;5039190;28;20033;-32
2022/06/08 04:42:47;;;;;;;1.02;0.30;;;;;;;28.71;33.81;96223.84;5038853;28;20121;-32
2022/06/08 04:45:12;;;;;;;0.30;0.10;;;;;;;28.70;33.67;96216.91;5036528;28;20028;-36
2022/06/08 04:47:38;;;;;;;0.20;0.20;;;;;;;28.71;33.58;96215.13;5039846;28;20032;-31
2022/06/08 04:50:04;;;;;;;0.40;0.20;;;;;;;28.72;33.52;96214.16;5039487;28;21594;-31
2022/06/08 04:52:30;;;;;;;0.10;0.10;;;;;;;28.69;33.98;96205.50;5041476;28;20032;-32
2022/06/08 04:54:55;;;;;;;0.10;0.10;;;;;;;28.71;33.75;96215.94;5041093;28;20028;-31
2022/06/08 04:57:20;;;;;;;0.82;0.40;;;;;;;28.70;33.93;96216.91;5048820;28;20024;-32
2022/06/08 04:59:46;;;;;;;0.35;0.20;;;;;;;28.69;33.86;96221.31;5043802;28;20744;-32
2022/06/08 05:02:11;;;;;;;0.40;0.30;;;;;;;28.71;33.59;96217.75;5041102;28;20041;-34
2022/06/08 05:04:37;;;;;;;0.20;0.10;;;;;;;28.69;33.76;96226.59;5039991;28;20023;-38
2022/06/08 05:07:03;;;;;;;0.38;0.22;;;;;;;28.70;33.79;96227.44;5037938;28;20027;-32
2022/06/08 05:09:28;;;;;;;0.10;0.10;;;;;;;28.68;33.73;96230.19;5034660;28;20029;-33
2022/06/08 05:11:54;;;;;;;0.55;0.20;;;;;;;28.69;33.77;96226.59;5036731;28;20056;-35
2022/06/08 05:14:19;;;;;;;0.38;0.20;;;;;;;28.69;33.65;96231.84;5037659;28;20032;-31
2022/06/08 05:16:45;;;;;;;0.45;0.17;;;;;;;28.69;33.86;96238.94;5038169;28;20074;-32
2022/06/08 05:19:10;;;;;;;0.70;0.30;;;;;;;28.69;33.81;96231.84;5039052;28;20021;-32
2022/06/08 05:21:36;;;;;;;0.98;0.22;;;;;;;28.69;33.83;96231.84;5038674;28;20029;-32
2022/06/08 05:24:02;;;;;;;0.10;0.10;;;;;;;28.69;33.80;96231.03;5037913;28;20083;-32
2022/06/08 05:26:28;;;;;;;0.20;0.20;;;;;;;28.69;33.79;96231.03;5037792;28;20983;-35
2022/06/08 05:28:53;;;;;;;0.10;0.10;;;;;;;28.68;33.74;96230.19;5040061;28;20032;-31
2022/06/08 05:31:19;;;;;;;0.30;0.10;;;;;;;28.68;33.44;96224.91;5041247;28;22778;-34
2022/06/08 05:33:44;;;;;;;0.63;0.30;;;;;;;28.68;33.57;96232.81;5039785;28;20039;-32
2022/06/08 05:36:09;;;;;;;0.22;0.20;;;;;;;28.69;33.62;96223.13;5041373;28;20375;-38
2022/06/08 05:38:35;;;;;;;0.45;0.30;;;;;;;28.67;33.64;96223.25;5020689;28;20116;-37
2022/06/08 05:41:00;;;;;;;0.20;0.20;;;;;;;28.67;33.80;96212.69;5040868;28;20091;-32
2022/06/08 05:43:26;;;;;;;0.68;0.30;;;;;;;28.68;33.63;96208.28;5042908;28;20463;-31
2022/06/08 05:45:52;;;;;;;0.20;0.20;;;;;;;28.67;33.69;96212.69;5040226;28;20133;-35
2022/06/08 05:48:17;;;;;;;0.45;0.20;;;;;;;28.68;33.33;96221.44;5040136;28;20722;-38
2022/06/08 05:50:43;;;;;;;0.30;0.22;;;;;;;28.69;33.45;96226.59;5025920;28;20036;-32
2022/06/08 05:53:08;;;;;;;2.05;0.20;;;;;;;28.68;33.47;96218.81;5042579;28;20970;-34
2022/06/08 05:55:34;;;;;;;0.20;0.20;;;;;;;28.67;33.71;96206.56;5034050;28;20038;-37
2022/06/08 05:57:59;;;;;;;0.40;0.38;;;;;;;28.67;33.58;96204.78;5019143;28;20485;-31
2022/06/08 06:00:27;;;;;;;0.32;0.30;;;;;;;28.67;33.56;96201.28;5044513;28;20037;-34
2022/06/08 06:02:53;;;;;;;0.35;0.22;;;;;;;28.66;33.75;96195.19;5048390;28;22079;-29
2022/06/08 06:05:20;;;;;;;0.75;0.30;;;;;;;28.67;33.71;96202.16;5046473;28;20028;-33
2022/06/08 06:07:46;;;;;;;0.65;0.28;;;;;;;28.67;33.79;96204.78;5051077;28;20025;-32
2022/06/08 06:10:11;;;;;;;0.28;0.20;;;;;;;28.67;33.65;96203.94;5051584;28;20040;-31
2022/06/08 06:12:36;;;;;;;0.35;0.20;;;;;;;28.67;33.76;96211.84;5050489;28;20232;-33
2022/06/08 06:15:02;;;;;;;0.45;0.17;;;;;;;28.66;33.81;96205.75;5047689;28;20040;-33
2022/06/08 06:17:28;;;;;;;1.52;0.25;;;;;;;28.66;33.57;96207.53;5043530;28;20024;-36
2022/06/08 06:19:54;;;;;;;0.85;0.40;;;;;;;28.66;33.58;96203.09;5049191;28;20035;-31
2022/06/08 06:22:19;;;;;;;0.68;0.30;;;;;;;28.66;33.85;96202.25;5053647;28;20036;-32
2022/06/08 06:24:45;;;;;;;0.95;0.30;;;;;;;28.66;33.37;96200.47;5051305;28;20037;-35
2022/06/08 06:27:10;;;;;;;0.93;0.30;;;;;;;28.64;33.60;96197.09;5050668;28;20021;-37
2022/06/08 06:29:35;;;;;;;1.75;0.30;;;;;;;28.66;33.47;96194.34;5048580;28;20044;-31
2022/06/08 06:32:03;;;;;;;1.65;0.50;;;;;;;28.64;33.68;96191.81;5042423;28;20032;-35
2022/06/08 06:34:29;;;;;;;2.28;0.85;;;;;;;28.64;33.38;96183.09;5022343;28;20177;-35
2022/06/08 06:36:55;;;;;;;4.75;0.90;;;;;;;28.62;33.45;96177.06;5043627;28;20625;-32
2022/06/08 06:39:21;;;;;;;5.85;1.05;;;;;;;28.64;33.48;96180.47;5043734;28;20032;-36
2022/06/08 06:41:46;;;;;;;4.20;1.35;;;;;;;28.66;33.87;96183.81;5042932;28;20479;-31
2022/06/08 06:44:12;;;;;;;5.00;1.60;;;;;;;28.64;33.45;96181.28;5007615;28;20032;-35
2022/06/08 06:46:37;;;;;;;6.30;1.65;;;;;;;28.67;33.62;96185.47;5030214;28;20048;-33
2022/06/08 06:49:03;;;;;;;5.95;1.17;;;;;;;28.66;33.69;96184.66;5036539;28;20106;-34
2022/06/08 06:51:28;;;;;;;5.50;1.55;;;;;;;28.66;33.77;96183.81;5038484;28;20045;-37
2022/06/08 06:53:54;;;;;;;12.32;1.88;;;;;;;28.66;33.67;96184.66;5029817;28;20029;-37
2022/06/08 06:56:19;;;;;;;4.57;1.48;;;;;;;28.66;33.89;96191.72;5046988;28;20039;-31
2022/06/08 06:58:48;;;;;;;7.15;1.80;;;;;;;28.65;33.76;96182.94;5049602;28;22069;-37
2022/06/08 07:01:14;;;;;;;5.90;2.30;;;;;;;28.63;33.45;96179.59;5046396;28;20032;-34
2022/06/08 07:03:39;;;;;;;11.68;2.22;;;;;;;28.62;33.36;96177.94;5042934;28;20028;-32
2022/06/08 07:06:05;;;;;;;7.70;2.08;;;;;;;28.61;33.18;96176.25;5041666;28;20117;-31
2022/06/08 07:08:30;;;;;;;8.57;2.60;;;;;;;28.60;33.05;96179.81;5044890;28;20017;-34
2022/06/08 07:13:41;;;;;;;6.55;2.15;;;;;;;28.56;33.12;96170.47;5046259;28;20120;-31
2022/06/08 07:16:06;;;;;;;8.68;2.60;;;;;;;28.54;33.25;96164.47;5050335;28;20028;-35
2022/06/08 07:18:31;;;;;;;13.60;2.78;;;;;;;28.53;33.31;96162.81;5046440;28;20016;-31
2022/06/08 07:20:57;;;;;;;6.53;2.60;;;;;;;28.52;32.99;96164.59;5046809;28;20276;-32
2022/06/08 07:23:22;;;;;;;10.23;2.20;;;;;;;28.49;32.26;96164.81;5048050;28;20453;-32
2022/06/08 07:25:48;;;;;;;8.48;1.98;;;;;;;28.45;32.42;96158.09;5050615;28;20033;-30
2022/06/08 07:28:14;;;;;;;6.35;1.92;;;;;;;28.40;32.13;96157.59;5049625;28;20028;-34
2022/06/08 07:30:39;;;;;;;5.60;1.92;;;;;;;28.33;31.99;96151.94;5044355;28;20802;-31
2022/06/08 07:33:05;;;;;;;10.43;2.17;;;;;;;28.26;31.98;96148.09;5052092;28;20032;-31
2022/06/08 07:35:30;;;;;;;7.25;1.73;;;;;;;28.18;31.78;96133.63;5047449;28;20029;-32
2022/06/08 07:37:56;;;;;;;6.72;1.95;;;;;;;28.11;31.94;96131.56;5050393;28;20036;-32
2022/06/08 07:40:21;;;;;;;8.23;1.90;;;;;;;28.05;31.84;96138.13;5053185;28;20040;-31
2022/06/08 07:42:47;;;;;;;6.95;1.83;;;;;;;27.99;31.92;96130.69;5051153;28;20542;-31
2022/06/08 07:45:12;;;;;;;5.72;2.10;;;;;;;27.94;32.00;96127.53;5041650;28;20032;-32
2022/06/08 07:49:36;;;;;;;9.32;2.10;;;;;;;27.88;31.91;96121.75;5048916;28;20029;-32
2022/06/08 07:50:24;;;;;;;8.13;1.83;;;;;;;27.85;31.95;96122.00;5051635;28;20028;-31
2022/06/08 07:52:50;;;;;;;5.53;1.83;;;;;;;27.82;31.88;96116.94;5048434;28;20040;-34
2022/06/08 07:55:15;;;;;;;3.75;1.58;;;;;;;27.80;31.83;96113.56;5047839;28;20029;-31
2022/06/08 07:57:40;;;;;;;5.70;1.63;;;;;;;27.78;31.99;96115.47;5047690;28;20035;-34
2022/06/08 08:00:10;;;;;;;13.93;1.80;;;;;;;27.75;31.98;96106.00;5052255;28;20032;-33
2022/06/08 08:02:36;;;;;;;6.38;1.98;;;;;;;27.75;31.82;96097.25;5051095;28;20028;-37
2022/06/08 08:05:01;;;;;;;8.05;1.83;;;;;;;27.73;31.64;96101.81;5052007;28;20040;-32
2022/06/08 08:07:26;;;;;;;7.25;1.88;;;;;;;27.72;31.75;96094.88;5051971;28;20035;-31
2022/06/08 08:09:52;;;;;;;9.32;2.25;;;;;;;27.70;31.69;96096.75;5051997;28;20058;-32
2022/06/08 08:12:17;;;;;;;8.63;1.83;;;;;;;27.68;31.45;96094.22;5041596;28;20036;-33
2022/06/08 08:14:42;;;;;;;7.35;1.90;;;;;;;27.68;31.32;96093.41;5051694;28;20776;-32
2022/06/08 08:17:08;;;;;;;6.00;1.88;;;;;;;27.67;31.45;96089.06;5046725;28;20040;-32
2022/06/08 08:19:33;;;;;;;5.70;1.80;;;;;;;27.65;31.21;96083.94;5047188;28;20036;-33
2022/06/08 08:21:59;;;;;;;7.20;2.00;;;;;;;27.63;31.47;96083.19;5048489;28;20249;-34
2022/06/08 08:24:24;;;;;;;5.63;1.80;;;;;;;27.63;31.24;96080.56;5046839;28;20028;-33
2022/06/08 08:26:50;;;;;;;6.63;1.65;;;;;;;27.63;31.29;96086.69;5044812;28;20036;-33
2022/06/08 08:29:17;;;;;;;5.00;1.30;;;;;;;27.62;31.42;96077.09;5041998;28;20604;-31
2022/06/08 08:31:42;;;;;;;9.80;1.80;;;;;;;27.61;31.24;96083.31;5038097;28;20290;-33
2022/06/08 08:34:08;;;;;;;11.23;2.08;;;;;;;27.62;31.03;96079.72;5042295;28;20649;-31
2022/06/08 08:36:33;;;;;;;9.52;1.80;;;;;;;27.62;31.37;96084.97;5040250;28;20020;-32
2022/06/08 08:38:59;;;;;;;4.78;1.60;;;;;;;27.64;31.03;96072.56;5048855;28;20032;-31
2022/06/08 08:44:44;;;;;;;4.72;1.55;;;;;;;27.70;31.08;96071.28;5025676;28;20130;-33
2022/06/08 08:47:12;;;;;;;7.97;1.48;;;;;;;27.72;31.05;96065.91;5022756;28;20047;-32
2022/06/08 08:49:40;;;;;;;5.20;1.90;;;;;;;27.75;31.23;96073.56;5040224;28;20060;-31
2022/06/08 08:52:22;;;;;;;8.40;2.22;;;;;;;27.78;31.03;96068.09;5006160;28;22763;-31
2022/06/08 08:54:55;;;;;;;12.32;2.22;;;;;;;27.80;30.72;96060.91;5036311;28;20479;-35
2022/06/08 08:57:30;;;;;;;9.52;2.47;;;;;;;27.81;30.84;96057.34;5032694;28;20021;-32
2022/06/08 08:59:56;;;;;;;9.15;2.13;;;;;;;27.83;30.67;96055.44;5025706;28;20044;-31
2022/06/08 09:05:20;;;;;;;7.10;1.83;;;;;;;27.87;31.02;96050.78;5025378;28;20039;-31
2022/06/08 09:07:46;;;;;;;5.00;1.70;;;;;;;27.88;30.96;96047.22;5032827;28;20041;-32
2022/06/08 09:10:18;;;;;;;6.82;2.20;;;;;;;27.89;30.74;96049.69;5038003;28;20681;-32
2022/06/08 09:12:44;;;;;;;7.35;2.00;;;;;;;27.90;31.05;96040.88;5042924;28;20056;-36
2022/06/08 09:15:10;;;;;;;10.32;2.17;;;;;;;27.91;30.87;96037.28;5032550;28;20912;-33
2022/06/08 09:17:37;;;;;;;7.75;1.90;;;;;;;27.91;31.11;96032.00;5003377;28;20036;-31
2022/06/08 09:20:24;;;;;;;7.38;1.60;;;;;;;27.92;31.05;96028.41;5043183;28;20183;-30
2022/06/08 09:22:52;;;;;;;6.75;1.75;;;;;;;27.91;30.81;96018.84;5049217;28;20047;-33
2022/06/08 09:25:26;;;;;;;6.43;1.90;;;;;;;27.89;30.79;96012.84;5035436;28;20028;-32
2022/06/08 09:27:52;;;;;;;11.70;1.90;;;;;;;27.86;30.54;96023.63;5034165;28;20032;-33
2022/06/08 09:30:19;;;;;;;6.43;1.67;;;;;;;27.84;30.61;96012.34;5047429;28;20070;-30
2022/06/08 09:32:59;;;;;;;8.65;1.77;;;;;;;27.82;30.56;96010.78;5048747;28;20033;-30
2022/06/08 09:35:35;;;;;;;4.95;1.77;;;;;;;27.80;30.74;96008.25;5049394;28;20731;-34
2022/06/08 09:38:04;;;;;;;5.97;1.55;;;;;;;27.78;30.60;96005.75;5036098;28;20029;-34
2022/06/08 09:40:41;;;;;;;7.82;1.90;;;;;;;27.77;30.70;96008.50;5049623;28;20039;-30
2022/06/08 09:43:38;;;;;;;5.43;1.63;;;;;;;27.78;30.76;95989.97;5034915;28;20139;-31
2022/06/08 09:51:25;;;;;;;4.05;1.52;;;;;;;27.79;30.54;95990.78;5048135;28;20032;-31
2022/06/08 09:52:13;;;;;;;6.85;2.22;;;;;;;27.81;30.83;95981.00;5021412;28;20549;-32
2022/06/08 09:55:03;;;;;;;4.80;1.88;;;;;;;27.84;30.82;95982.56;5052743;28;20051;-33
2022/06/08 09:57:50;;;;;;;5.55;1.80;;;;;;;27.85;30.82;95979.81;5044233;28;20040;-31
2022/06/08 10:00:24;;;;;;;8.35;2.20;;;;;;;27.88;31.04;95973.47;5049770;28;20039;-31
2022/06/08 10:03:08;;;;;;;8.50;2.22;;;;;;;27.90;30.96;95967.16;5033804;28;20033;-31
2022/06/08 10:05:42;;;;;;;9.20;2.22;;;;;;;27.94;31.15;95972.16;5042196;28;20557;-35
2022/06/08 10:08:22;;;;;;;13.02;2.58;;;;;;;27.96;31.06;95965.00;5018434;28;20039;-30
2022/06/08 10:11:04;;;;;;;10.38;2.50;;;;;;;27.97;31.11;95962.25;5029519;28;20827;-32
2022/06/08 10:13:36;;;;;;;7.75;2.60;;;;;;;27.99;31.21;95957.69;5045522;28;20039;-33
2022/06/08 10:16:21;;;;;;;7.13;2.63;;;;;;;28.01;31.26;95955.81;5026727;28;20650;-32
2022/06/08 10:18:54;;;;;;;9.73;2.33;;;;;;;28.04;31.12;95949.47;5028746;28;20029;-31
2022/06/08 10:21:24;;;;;;;7.13;2.47;;;;;;;28.06;31.23;95949.34;5030418;28;20035;-34
2022/06/08 10:24:12;;;;;;;8.80;2.67;;;;;;;28.08;31.13;95948.28;5030988;28;20036;-33
2022/06/08 10:26:53;;;;;;;8.35;2.53;;;;;;;28.10;31.34;95945.53;5029980;28;20033;-36
2022/06/08 10:29:21;;;;;;;7.25;2.78;;;;;;;28.11;31.34;95940.13;5046043;28;20036;-31
2022/06/08 10:31:57;;;;;;;8.43;3.03;;;;;;;28.13;31.57;95937.38;5047397;28;20657;-35
2022/06/08 10:34:24;;;;;;;10.52;3.20;;;;;;;28.14;31.29;95934.63;5031498;28;20082;-36
2022/06/08 10:36:52;;;;;;;9.02;2.92;;;;;;;28.15;31.16;95933.66;5047810;28;20028;-30
2022/06/08 10:39:18;;;;;;;9.10;2.90;;;;;;;28.17;31.50;95938.81;5028666;28;20037;-32
2022/06/08 10:44:35;;;;;;;9.13;3.13;;;;;;;28.20;31.31;95927.22;5030084;28;20039;-35
2022/06/08 10:47:15;;;;;;;8.23;2.90;;;;;;;28.21;31.31;95921.81;5045363;28;20086;-34
2022/06/08 10:49:44;;;;;;;8.38;2.97;;;;;;;28.22;31.86;95923.50;5044345;28;20335;-36
2022/06/08 10:52:22;;;;;;;7.90;2.92;;;;;;;28.23;31.59;95919.94;5049712;28;20052;-31
2022/06/08 10:55:17;;;;;;;8.15;2.80;;;;;;;28.24;31.71;95921.59;5038669;28;20115;-34
2022/06/08 10:57:51;;;;;;;7.90;3.00;;;;;;;28.25;31.53;95907.50;5021908;28;20069;-35
2022/06/08 11:00:19;;;;;;;9.20;2.67;;;;;;;28.25;31.60;95907.50;5056728;28;20676;-36
2022/06/08 11:03:03;;;;;;;6.72;2.63;;;;;;;28.26;31.50;95898.63;5054117;28;20037;-35
2022/06/08 11:05:35;;;;;;;8.52;3.22;;;;;;;28.27;31.57;95899.47;5054555;28;20029;-33
2022/06/08 11:08:01;;;;;;;9.13;2.78;;;;;;;28.28;31.66;95901.13;5052908;28;20035;-33
2022/06/08 11:10:41;;;;;;;8.35;3.08;;;;;;;28.28;31.82;95890.59;5056057;28;20033;-32
2022/06/08 11:13:24;;;;;;;8.60;3.10;;;;;;;28.28;31.65;95890.59;5052932;28;20029;-34
2022/06/08 11:15:53;;;;;;;8.35;2.95;;;;;;;28.29;31.73;95893.13;5052341;28;20475;-36
2022/06/08 11:18:42;;;;;;;7.88;2.83;;;;;;;28.30;31.74;95893.97;5052677;28;20017;-31
2022/06/08 11:21:16;;;;;;;7.93;2.80;;;;;;;28.30;31.69;95900.06;5036920;28;20427;-30
2022/06/08 11:23:48;;;;;;;9.98;3.10;;;;;;;28.31;31.67;95890.38;5057597;28;20222;-31
2022/06/08 11:26:25;;;;;;;10.77;2.85;;;;;;;28.32;31.81;95885.94;5037327;28;20758;-31
2022/06/08 11:29:00;;;;;;;9.48;3.15;;;;;;;28.33;31.92;95880.53;5035829;28;20033;-32
2022/06/08 11:31:25;;;;;;;6.47;2.67;;;;;;;28.32;31.53;95878.88;5051907;28;20033;-31
2022/06/08 11:34:17;;;;;;;7.05;2.88;;;;;;;28.34;31.80;95878.75;5052668;28;20402;-34
2022/06/08 11:37:04;;;;;;;10.80;2.63;;;;;;;28.35;31.95;95880.44;5037375;28;20158;-31
2022/06/08 11:40:00;;;;;;;7.63;2.88;;;;;;;28.35;31.93;95886.53;5052617;28;20037;-31
2022/06/08 11:42:29;;;;;;;8.45;2.78;;;;;;;28.35;31.99;95881.28;5038136;28;20032;-31
2022/06/08 11:44:56;;;;;;;8.65;2.80;;;;;;;28.35;31.96;95868.09;5057082;28;20021;-33
2022/06/08 11:47:23;;;;;;;7.03;2.75;;;;;;;28.37;32.10;95868.81;5055295;28;20124;-31
2022/06/08 11:50:22;;;;;;;6.03;2.50;;;;;;;28.37;31.93;95879.34;5031738;28;20028;-33
2022/06/08 11:53:05;;;;;;;8.05;2.80;;;;;;;28.37;32.12;95874.06;5023253;28;20044;-34
2022/06/08 11:55:52;;;;;;;6.03;2.30;;;;;;;28.38;32.21;95875.75;5015470;28;20032;-31
2022/06/08 11:58:27;;;;;;;7.13;2.53;;;;;;;28.37;32.15;95855.63;5033016;28;20040;-32
2022/06/08 12:00:56;;;;;;;8.30;3.15;;;;;;;28.38;32.27;95867.84;5016341;28;20745;-31
2022/06/08 12:03:25;;;;;;;8.80;2.80;;;;;;;28.40;32.21;95863.31;5009856;28;20032;-31
2022/06/08 12:05:51;;;;;;;5.50;2.30;;;;;;;28.39;32.12;95864.28;5028671;28;20031;-34